Terminal Aerodrome Forecast
Issued by NWS Jackson, MS

Home | Current Version | Previous Version | Text Only | Print | Product List | Glossary On
Versions: 1 2 3 4 5 6 7 8 9 10 11 12 13
000
FTUS44 KJAN 300528
TAFHBG
TAF
KHBG 300528Z 3006/3106 16003KT P6SM SCT080
     FM300900 VRB03KT 4SM BR SCT006
     FM301400 12004KT P6SM SCT030 SCT050=

USA.gov is the U.S. government's official web portal to all federal, state and local government web resources and services.